Tiempo atmosférico en la estación meteorológica de Brozas , Cáceres (411 m.)

Fecha
DESCASC
Temp. máxima en grados centígrados (hora)
DESCASC
Temp. mínima en grados centígrados (hora)
DESCASC
Temp. media en grados centígrados
DESCASC
Racha de viento máxima en m/sg (hora)
DESCASC
Velocidad máxima media en intervalos de 10 minutos(hora)
DESCASC
Precipitaciones diarias en mm
DESCASC
Precipitaciones de 00:00 a 06:00 en mm
DESCASC
Precipitaciones de 06:00 a 12:00 en mm
DESCASC
Precipitaciones de 12:00 a 18:00 en mm
DESCASC
Precipitaciones de 18:00 a 24:00 en mm
DESCASC
21-08-2017 37.1 (18:20) 21.7 (08:20) 29.4 8.06 (23:20) 6.11 (23:20) 0 0 0 0 0
20-08-2017 40 (18:40) 23.8 (08:10) 31.9 12.5 (10:00) 9.17 (10:00) 0 0 0 0 0
19-08-2017 37.1 (18:00) 20.2 (07:30) 28.6 9.44 (13:40) 6.39 (13:20) 0 0 0 0 0
18-08-2017 37.7 (18:00) 20 (08:10) 28.9 10.83 (14:40) 5.56 (16:00) 0 0 0 0 0
17-08-2017 37.7 (17:50) 19.6 (00:00) 28.7 8.33 (23:30) 6.11 (23:30) 0 0 0 0 0
16-08-2017 35.6 (17:50) 16.6 (00:00) 26.1 8.33 (19:50) 5.28 (20:10) 0 0 0 0 0
15-08-2017 34.7 (17:00) 17.4 (00:00) 26.1 11.11 (17:10) 8.33 (20:20) 0 0 0 0 0
14-08-2017 36.9 (17:20) 20.8 (06:40) 28.9 8.61 (19:20) 6.67 (21:50) 0 0 0 0 0
13-08-2017 37.1 (17:30) 21.4 (00:00) 29.2 10.28 (08:40) 7.78 (08:40) 0 0 0 0 0
12-08-2017 35.7 (17:40) 19.9 (00:00) 27.8 11.94 (09:30) 8.89 (10:10) 0 0 0 0 0
11-08-2017 32.6 (17:50) 18.1 (00:00) 25.3 10.83 (09:10) 7.78 (10:50) 0 0 0 0 0
10-08-2017 30 (17:50) 14.7 (00:00) 22.3 15 (02:40) 10 (03:40) 0 0 0 0 0
09-08-2017 29.3 (17:50) 13.7 (00:00) 21.5 12.22 (21:50) 8.33 (22:00) 0 0 0 0 0
08-08-2017 30.4 (19:20) 13.1 (00:00) 21.8 10 (18:30) 7.22 (21:00) 0 0 0 0 0
07-08-2017 34.5 (16:40) 16.9 (00:00) 25.7 12.22 (18:10) 8.61 (19:10) 0 0 0 0 0
06-08-2017 35.9 (18:10) 18.2 (00:00) 27.1 8.06 (22:50) 5.83 (22:50) 0 0 0 0 0
05-08-2017 38 (18:10) 20.4 (00:00) 29.2 12.5 (18:10) 7.78 (20:40) 0 0 0 0 0
04-08-2017 39.5 (17:30) 20.5 (00:00) 30 11.11 (21:10) 7.78 (21:30) 0 0 0 0 0
03-08-2017 36.5 (18:10) 16.7 (00:00) 26.6 11.11 (18:50) 7.22 (21:20) 0 0 0 0 0
02-08-2017 35.2 (18:20) 14.9 (00:00) 25.1 9.17 (22:20) 6.67 (22:20) 0 0 0 0 0
01-08-2017 31.2 (19:10) 13.8 (00:00) 22.5 9.17 (22:10) 6.67 (21:30) 0 0 0 0 0
31-07-2017 32 (16:30) 14.2 (00:00) 23.1 15.56 (18:00) 11.67 (18:00) 0 0 0 0 0
30-07-2017 35.5 (18:10) 17.5 (00:00) 26.5 10.83 (17:20) 7.22 (19:10) 0 0 0 0 0
29-07-2017 37.2 (17:50) 19.3 (00:00) 28.3 10.28 (22:50) 7.5 (23:10) 0 0 0 0 0
28-07-2017 37.4 (17:20) 18.1 (00:00) 27.8 10.56 (20:40) 8.33 (20:50) 0 0 0 0 0
27-07-2017 38 (17:20) 21.4 (00:00) 29.7 9.72 (20:50) 8.06 (20:50) 0 0 0 0 0
26-07-2017 36.9 (18:50) 21.7 (00:00) 29.3 9.44 (09:40) 7.22 (09:40) 0 0 0 0 0
25-07-2017 35.3 (17:50) 19.7 (00:00) 27.5 10.28 (19:10) 6.94 (06:40) 0 0 0 0 0
24-07-2017 34.6 (18:00) 18.5 (00:00) 26.5 11.67 (18:30) 8.61 (20:00) 0 0 0 0 0
23-07-2017 34.9 (19:30) 16.2 (00:00) 25.6 11.94 (22:00) 8.89 (22:00) 0 0 0 0 0

Gráficas

Temp. máximas Temp. mínimas Temp. medias Precipitaciones Rachas de viento máximas Velocidades máximas media en intervalos de 10 minutos

Datos horarios

Fecha y hora oficial Temperatura (ºC) Velocidad del viento (km/h) Dirección del viento Racha (km/h) Dirección de racha Precipitación (mm) Presión (hPa) Tendencia (hPa) Humedad (%)
2017-08-21 23:00:00 30.6 17 Noroeste 23 Oeste 0 -- -- 37
2017-08-21 22:00:00 31.7 12 Oeste 17 Oeste 0 -- -- 36
2017-08-21 21:00:00 33.9 10 Sudoeste 23 Sudoeste 0 -- -- 31
2017-08-21 20:00:00 35.9 14 Sur 26 Sudoeste 0 -- -- 29
2017-08-21 19:00:00 36.7 11 Sudoeste 28 Sudoeste 0 -- -- 28
2017-08-21 18:00:00 36.8 11 Sur 24 Oeste 0 -- -- 28
2017-08-21 17:00:00 36.6 5 Sudeste 19 Oeste 0 -- -- 29
2017-08-21 16:00:00 35.4 9 Sudoeste 24 Sudoeste 0 -- -- 30
2017-08-21 15:00:00 34.4 10 Oeste 22 Oeste 0 -- -- 31
2017-08-21 14:00:00 32.8 10 Sudoeste 21 Sudoeste 0 -- -- 33
2017-08-21 13:00:00 31.4 10 Sudoeste 22 Sudoeste 0 -- -- 32
2017-08-21 12:00:00 30.1 12 Sur 24 Sur 0 -- -- 38
2017-08-21 11:00:00 27.3 13 Sudeste 23 Sudeste 0 -- -- 46
2017-08-21 10:00:00 24.8 17 Sudeste 23 Sudeste 0 -- -- 54
2017-08-21 09:00:00 22.6 13 Sudeste 20 Sur 0 -- -- 61
2017-08-21 08:00:00 21.8 9 Sur 19 Sudeste 0 -- -- 61
2017-08-21 07:00:00 23.2 13 Sur 19 Sur 0 -- -- 48
2017-08-21 06:00:00 26.2 8 Sudeste 23 Nordeste 0 -- -- 36
2017-08-21 05:00:00 27 11 Este 23 Nordeste 0 -- -- 35
2017-08-21 04:00:00 28.4 20 Nordeste 23 Nordeste 0 -- -- 32
2017-08-21 03:00:00 28.4 15 Nordeste 17 Sur 0 -- -- 32
2017-08-21 02:00:00 29.1 14 Este 23 Nordeste 0 -- -- 29
2017-08-21 01:00:00 29.8 17 Nordeste 23 Nordeste 0 -- -- 27
2017-08-21 00:00:00 31.2 16 Este 19 Nordeste 0 -- -- 24
2017-08-20 23:00:00 31.6 15 Nordeste 17 Nordeste 0 -- -- 25
2017-08-20 22:00:00 32.9 14 Nordeste 17 Norte 0 -- -- 26
2017-08-20 21:00:00 35.5 13 Norte 25 Norte 0 -- -- 23
2017-08-20 20:00:00 38.9 8 Sudeste 13 Nordeste 0 -- -- 17
2017-08-20 19:00:00 39.8 5 Sudeste 16 Sudeste 0 -- -- 17
2017-08-20 18:00:00 39.8 10 Sur 24 Sur 0 -- -- 18
2017-08-20 17:00:00 39.6 5 Nordeste 27 Este 0 -- -- 20
2017-08-20 16:00:00 39.2 10 Sudeste 24 Este 0 -- -- 19
2017-08-20 15:00:00 38 15 Este 30 Este 0 -- -- 24
2017-08-20 14:00:00 36.4 18 Este 36 Este 0 -- -- 27
2017-08-20 13:00:00 34.8 15 Este 39 Nordeste 0 -- -- 29
2017-08-20 12:00:00 32.8 25 Este 39 Este 0 -- -- 34
2017-08-20 11:00:00 30.9 28 Este 42 Este 0 -- -- 37
2017-08-20 10:00:00 28.7 33 Este 45 Este 0 -- -- 43
2017-08-20 09:00:00 25.8 19 Nordeste 27 Nordeste 0 -- -- 42
2017-08-20 08:00:00 24.3 19 Nordeste 31 Nordeste 0 -- -- 40
2017-08-20 07:00:00 25 17 Nordeste 26 Nordeste 0 -- -- 38
2017-08-20 06:00:00 25.6 17 Nordeste 31 Nordeste 0 -- -- 36
2017-08-20 05:00:00 26.3 21 Nordeste 31 Nordeste 0 -- -- 34
2017-08-20 04:00:00 27.1 23 Nordeste 32 Nordeste 0 -- -- 32
2017-08-20 03:00:00 27.2 21 Nordeste 30 Nordeste 0 -- -- 32
2017-08-20 02:00:00 27.6 18 Nordeste 26 Nordeste 0 -- -- 31
2017-08-20 01:00:00 28.1 17 Norte 23 Nordeste 0 -- -- 30
2017-08-20 00:00:00 29.1 17 Norte 24 Norte 0 -- -- 28
2017-08-19 23:00:00 29.8 17 Norte 20 Norte 0 -- -- 27
2017-08-19 22:00:00 31.5 11 Nordeste 12 Nordeste 0 -- -- 23
2017-08-19 21:00:00 33.7 8 Norte 19 Norte 0 -- -- 19
2017-08-19 20:00:00 36 14 Norte 18 Norte 0 -- -- 19
2017-08-19 19:00:00 36.7 6 Este 24 Norte 0 -- -- 19
2017-08-19 18:00:00 37.1 6 Norte 21 Nordeste 0 -- -- 20
2017-08-19 17:00:00 36.2 12 Nordeste 22 Norte 0 -- -- 22
2017-08-19 16:00:00 36.1 10 Nordeste 24 Norte 0 -- -- 24
2017-08-19 15:00:00 35.3 14 Norte 33 Nordeste 0 -- -- 24
2017-08-19 14:00:00 34.3 17 Nordeste 34 Norte 0 -- -- 27
2017-08-19 13:00:00 33 19 Nordeste 30 Nordeste 0 -- -- 30
2017-08-19 12:00:00 30.6 18 Nordeste 27 Norte 0 -- -- 34
2017-08-19 11:00:00 28 19 Norte 28 Norte 0 -- -- 39
2017-08-19 10:00:00 25.8 21 Norte 27 Norte 0 -- -- 43
2017-08-19 09:00:00 22.5 17 Norte 20 Norte 0 -- -- 55
2017-08-19 08:00:00 20.8 15 Norte 18 Norte 0 -- -- 60
2017-08-19 07:00:00 20.4 14 Norte 21 Norte 0 -- -- 67
2017-08-19 06:00:00 21.1 16 Norte 18 Norte 0 -- -- 63
2017-08-19 05:00:00 22.1 14 Noroeste 19 Norte 0 -- -- 61
2017-08-19 04:00:00 23.2 15 Norte 22 Norte 0 -- -- 52
2017-08-19 03:00:00 23.2 10 Norte 13 Noroeste 0 -- -- 56
2017-08-19 02:00:00 24.4 13 Noroeste 17 Noroeste 0 -- -- 49
2017-08-19 01:00:00 25.4 13 Noroeste 17 Noroeste 0 -- -- 44
2017-08-19 00:00:00 26.6 15 Noroeste 21 Noroeste 0 -- -- 39
2017-08-18 23:00:00 28.7 18 Noroeste 26 Noroeste 0 -- -- 34
2017-08-18 22:00:00 29.6 14 Norte 21 Norte 0 -- -- 22
2017-08-18 21:00:00 34 17 Noroeste 23 Noroeste 0 -- -- 18
2017-08-18 20:00:00 36.5 15 Noroeste 27 Noroeste 0 -- -- 15
2017-08-18 19:00:00 37.4 19 Noroeste 34 Noroeste 0 -- -- 13
2017-08-18 18:00:00 37.7 10 Noroeste 28 Noroeste 0 -- -- 13
2017-08-18 17:00:00 37.3 20 Oeste 31 Oeste 0 -- -- 15
2017-08-18 16:00:00 37 20 Oeste 32 Noroeste 0 -- -- 20
2017-08-18 15:00:00 36.1 15 Noroeste 39 Oeste 0 -- -- 20
2017-08-18 14:00:00 34.8 16 Norte 28 Noroeste 0 -- -- 21
2017-08-18 13:00:00 32.9 14 Noroeste 33 Norte 0 -- -- 25
2017-08-18 12:00:00 30.9 14 Noroeste 25 Noroeste 0 -- -- 29
2017-08-18 11:00:00 28 16 Noroeste 21 Noroeste 0 -- -- 33
2017-08-18 10:00:00 26.9 9 Norte 13 Norte 0 -- -- 36
2017-08-18 09:00:00 22.9 4 Nordeste 16 Noroeste 0 -- -- 45
2017-08-18 08:00:00 20.1 13 Noroeste 18 Norte 0 -- -- 53
2017-08-18 07:00:00 20.3 14 Noroeste 18 Noroeste 0 -- -- 53
2017-08-18 06:00:00 21.2 12 Noroeste 16 Norte 0 -- -- 52
2017-08-18 05:00:00 21.5 10 Noroeste 15 Noroeste 0 -- -- 51
2017-08-18 04:00:00 22.6 10 Noroeste 13 Noroeste 0 -- -- 50
2017-08-18 03:00:00 23.4 12 Noroeste 15 Noroeste 0 -- -- 49
2017-08-18 02:00:00 24.8 13 Noroeste 21 Noroeste 0 -- -- 46
2017-08-18 01:00:00 26.3 16 Noroeste 19 Noroeste 0 -- -- 43
2017-08-18 00:00:00 28.5 18 Noroeste 30 Noroeste 0 -- -- 38
2017-08-17 23:00:00 30.5 21 Oeste 27 Oeste 0 -- -- 35
2017-08-17 22:00:00 33.4 4 Oeste 6 Noroeste 0 -- -- 22
2017-08-17 21:00:00 35.6 4 Oeste 10 Oeste 0 -- -- 20
2017-08-17 20:00:00 37 8 Oeste 20 Oeste 0 -- -- 19
2017-08-17 19:00:00 37.3 12 Noroeste 30 Noroeste 0 -- -- 19
2017-08-17 18:00:00 37.6 9 Noroeste 22 Noroeste 0 -- -- 19
2017-08-17 17:00:00 37.1 10 Norte 18 Norte 0 -- -- 19
2017-08-17 16:00:00 36.5 6 Norte 18 Oeste 0 -- -- 19
2017-08-17 15:00:00 35.9 5 Sudeste 21 Noroeste 0 -- -- 21
2017-08-17 14:00:00 34.5 13 Norte 22 Norte 0 -- -- 23
2017-08-17 13:00:00 33.1 10 Norte 24 Nordeste 0 -- -- 26
2017-08-17 12:00:00 31.4 13 Nordeste 26 Norte 0 -- -- 30
2017-08-17 11:00:00 29.4 19 Nordeste 24 Norte 0 -- -- 35
2017-08-17 10:00:00 25.4 13 Norte 17 Norte 0 -- -- 45
2017-08-17 09:00:00 21.3 11 Noroeste 14 Noroeste 0 -- -- 56
2017-08-17 08:00:00 19.6 11 Noroeste 13 Noroeste 0 -- -- 60
2017-08-17 07:00:00 19.9 10 Noroeste 13 Noroeste 0 -- -- 58
2017-08-17 06:00:00 20.2 12 Noroeste 14 Noroeste 0 -- -- 55
2017-08-17 05:00:00 20.5 12 Noroeste 17 Noroeste 0 -- -- 53
2017-08-17 04:00:00 21.7 12 Noroeste 14 Noroeste 0 -- -- 49
2017-08-17 03:00:00 22.4 10 Noroeste 17 Noroeste 0 -- -- 46
2017-08-17 02:00:00 23.4 15 Noroeste 16 Noroeste 0 -- -- 43
2017-08-17 01:00:00 24.4 13 Noroeste 18 Noroeste 0 -- -- 38
2017-08-17 00:00:00 25.8 15 Noroeste 18 Noroeste 0 -- -- 33
2017-08-16 23:00:00 27.8 12 Oeste 25 Oeste 0 -- -- 30
2017-08-16 22:00:00 29.1 13 Norte 19 Norte 0 -- -- 24
2017-08-16 21:00:00 32.6 14 Norte 29 Noroeste 0 -- -- 20
2017-08-16 20:00:00 34.7 15 Noroeste 30 Noroeste 0 -- -- 18
2017-08-16 19:00:00 35.4 12 Norte 22 Norte 0 -- -- 15
2017-08-16 18:00:00 35.6 10 Noroeste 26 Oeste 0 -- -- 14
2017-08-16 17:00:00 34.3 8 Norte 22 Noroeste 0 -- -- 14
2017-08-16 16:00:00 33.5 10 Noroeste 26 Noroeste 0 -- -- 15
2017-08-16 15:00:00 32.8 12 Oeste 25 Noroeste 0 -- -- 16
2017-08-16 14:00:00 31.4 11 Noroeste 20 Noroeste 0 -- -- 18
2017-08-16 13:00:00 29.8 8 Noroeste 17 Norte 0 -- -- 21
2017-08-16 12:00:00 28 13 Norte 20 Norte 0 -- -- 24
2017-08-16 11:00:00 25.8 14 Norte 21 Norte 0 -- -- 29
2017-08-16 10:00:00 22.1 8 Noroeste 11 Noroeste 0 -- -- 41
2017-08-16 09:00:00 17.9 10 Noroeste 14 Noroeste 0 -- -- 54
2017-08-16 08:00:00 16.7 12 Noroeste 15 Noroeste 0 -- -- 58
2017-08-16 07:00:00 16.7 5 Oeste 14 Noroeste 0 -- -- 61
2017-08-16 06:00:00 17.1 9 Noroeste 18 Noroeste 0 -- -- 61
2017-08-16 05:00:00 17.6 14 Noroeste 19 Noroeste 0 -- -- 60
2017-08-16 04:00:00 18.4 14 Noroeste 17 Noroeste 0 -- -- 58
2017-08-16 03:00:00 19 12 Noroeste 16 Noroeste 0 -- -- 56
2017-08-16 02:00:00 19.7 13 Noroeste 18 Noroeste 0 -- -- 53
2017-08-16 01:00:00 21.2 13 Noroeste 21 Noroeste 0 -- -- 49
2017-08-16 00:00:00 23 17 Noroeste 24 Noroeste 0 -- -- 45
2017-08-15 23:00:00 24.6 19 Noroeste 27 Noroeste 0 -- -- 41
2017-08-15 22:00:00 26.9 23 Noroeste 33 Noroeste 0 -- -- 32
2017-08-15 21:00:00 29.8 26 Noroeste 38 Oeste 0 -- -- 20
2017-08-15 20:00:00 33 26 Oeste 37 Oeste 0 -- -- 17
2017-08-15 19:00:00 33.9 23 Oeste 37 Oeste 0 -- -- 17
2017-08-15 18:00:00 34.7 23 Oeste 40 Oeste 0 -- -- 17
2017-08-15 17:00:00 34.7 21 Oeste 33 Oeste 0 -- -- 19
2017-08-15 16:00:00 34.2 18 Oeste 32 Oeste 0 -- -- 20
2017-08-15 15:00:00 33.1 17 Oeste 28 Oeste 0 -- -- 21
2017-08-15 14:00:00 30.4 17 Oeste 26 Oeste 0 -- -- 25
2017-08-15 13:00:00 29.6 16 Noroeste 22 Oeste 0 -- -- 29
2017-08-15 12:00:00 27.5 13 Noroeste 17 Oeste 0 -- -- 33
2017-08-15 11:00:00 25.1 3 Oeste 9 Oeste 0 -- -- 42
2017-08-15 10:00:00 21.8 5 Noroeste 14 Noroeste 0 -- -- 53
2017-08-15 09:00:00 18.8 7 Noroeste 14 Oeste 0 -- -- 65
2017-08-15 08:00:00 17.4 10 Oeste 14 Oeste 0 -- -- 67
2017-08-15 07:00:00 18.1 11 Oeste 15 Oeste 0 -- -- 65
2017-08-15 06:00:00 18.6 6 Sudoeste 12 Noroeste 0 -- -- 64
2017-08-15 05:00:00 19.1 12 Noroeste 21 Oeste 0 -- -- 63
2017-08-15 04:00:00 20 13 Noroeste 22 Noroeste 0 -- -- 60
2017-08-15 03:00:00 21.8 16 Noroeste 21 Noroeste 0 -- -- 53
2017-08-15 02:00:00 22.6 14 Noroeste 16 Noroeste 0 -- -- 49
2017-08-15 01:00:00 24 12 Noroeste 19 Oeste 0 -- -- 43
2017-08-15 00:00:00 25.7 14 Noroeste 28 Oeste 0 -- -- 38
2017-08-14 23:00:00 27.3 21 Noroeste 30 Oeste 0 -- -- 31
2017-08-14 22:00:00 29.6 23 Oeste 30 Oeste 0 -- -- 28
2017-08-14 21:00:00 31.9 23 Oeste 30 Oeste 0 -- -- 24
2017-08-14 20:00:00 34 22 Oeste 31 Oeste 0 -- -- 20
2017-08-14 19:00:00 36 13 Sur 23 Sudoeste 0 -- -- 20
2017-08-14 18:00:00 36.6 7 Sur 22 Sur 0 -- -- 19
2017-08-14 17:00:00 36.5 11 Sudoeste 23 Sur 0 -- -- 19
2017-08-14 16:00:00 36 13 Sur 27 Sur 0 -- -- 20
2017-08-14 15:00:00 34.9 14 Sur 27 Sudoeste 0 -- -- 21
2017-08-14 14:00:00 33.7 15 Sudoeste 25 Sur 0 -- -- 22
2017-08-14 13:00:00 31.8 11 Sur 22 Sudoeste 0 -- -- 26
2017-08-14 12:00:00 29.7 10 Sur 21 Sudeste 0 -- -- 28
2017-08-14 11:00:00 27.8 13 Sudeste 22 Sudeste 0 -- -- 31
2017-08-14 10:00:00 25.9 12 Sudeste 17 Sudeste 0 -- -- 32
2017-08-14 09:00:00 24.3 5 Este 10 Sudeste 0 -- -- 32
2017-08-14 08:00:00 22.8 7 Sudeste 14 Nordeste 0 -- -- 32
2017-08-14 07:00:00 21.9 12 Este 18 Nordeste 0 -- -- 35
2017-08-14 06:00:00 21.9 14 Norte 22 Nordeste 0 -- -- 34
2017-08-14 05:00:00 24.7 18 Nordeste 22 Nordeste 0 -- -- 29
2017-08-14 04:00:00 24.9 14 Nordeste 16 Nordeste 0 -- -- 29
2017-08-14 03:00:00 24.5 10 Norte 13 Noroeste 0 -- -- 33
2017-08-14 02:00:00 25.2 11 Noroeste 15 Noroeste 0 -- -- 33
2017-08-14 01:00:00 26.2 11 Noroeste 16 Noroeste 0 -- -- 31
2017-08-14 00:00:00 29.6 5 Norte 10 Oeste 0 -- -- 20
2017-08-13 23:00:00 30.3 8 Nordeste 12 Norte 0 -- -- 19
2017-08-13 22:00:00 31.4 4 Sudeste 11 Nordeste 0 -- -- 18
2017-08-13 21:00:00 33.8 4 Norte 6 Noroeste 0 -- -- 16
2017-08-13 20:00:00 36 9 Oeste 16 Noroeste 0 -- -- 15
2017-08-13 19:00:00 36.9 3 Sur 22 Sudoeste 0 -- -- 14
2017-08-13 18:00:00 37 11 Sudoeste 28 Sudoeste 0 -- -- 14
2017-08-13 17:00:00 37 11 Sudoeste 23 Oeste 0 -- -- 14
2017-08-13 16:00:00 36.5 11 Oeste 26 Sur 0 -- -- 14
2017-08-13 15:00:00 36.7 8 Sudoeste 21 Este 0 -- -- 14
2017-08-13 14:00:00 35.3 5 Nordeste 20 Sudeste 0 -- -- 16
2017-08-13 13:00:00 33.6 9 Sudeste 18 Sur 0 -- -- 18
2017-08-13 12:00:00 31.3 9 Sudeste 22 Sudeste 0 -- -- 20
2017-08-13 11:00:00 29 14 Sudeste 24 Sudeste 0 -- -- 21
2017-08-13 10:00:00 26.4 16 Sudeste 26 Sudeste 0 -- -- 24
2017-08-13 09:00:00 24.2 17 Este 37 Este 0 -- -- 28
2017-08-13 08:00:00 21.4 14 Nordeste 18 Nordeste 0 -- -- 29
2017-08-13 07:00:00 22.5 12 Este 19 Sudeste 0 -- -- 26
2017-08-13 06:00:00 22.4 10 Nordeste 14 Nordeste 0 -- -- 28
2017-08-13 05:00:00 22.9 12 Nordeste 14 Nordeste 0 -- -- 25
2017-08-13 04:00:00 23.7 14 Nordeste 19 Nordeste 0 -- -- 24
2017-08-13 03:00:00 25.5 15 Nordeste 17 Nordeste 0 -- -- 21
2017-08-13 02:00:00 23.8 12 Norte 18 Nordeste 0 -- -- 23
2017-08-13 01:00:00 27.6 13 Nordeste 14 Nordeste 0 -- -- 18
2017-08-13 00:00:00 28.5 10 Nordeste 12 Nordeste 0 -- -- 17
2017-08-12 23:00:00 28.6 11 Nordeste 12 Nordeste 0 -- -- 17
2017-08-12 22:00:00 28.9 10 Norte 11 Norte 0 -- -- 18
2017-08-12 21:00:00 31.3 8 Norte 17 Nordeste 0 -- -- 17
2017-08-12 20:00:00 34 10 Norte 26 Norte 0 -- -- 15
2017-08-12 19:00:00 35 8 Norte 18 Nordeste 0 -- -- 14
2017-08-12 18:00:00 34.9 9 Nordeste 22 Este 0 -- -- 14
2017-08-12 17:00:00 34.8 6 Norte 23 Nordeste 0 -- -- 15
2017-08-12 16:00:00 34.7 6 Sudeste 22 Nordeste 0 -- -- 16
2017-08-12 15:00:00 34.1 13 Nordeste 25 Norte 0 -- -- 18
2017-08-12 14:00:00 33 10 Nordeste 31 Este 0 -- -- 19
2017-08-12 13:00:00 31.2 17 Este 32 Nordeste 0 -- -- 22
2017-08-12 12:00:00 29.5 18 Este 33 Este 0 -- -- 24
2017-08-12 11:00:00 26.8 25 Este 42 Este 0 -- -- 28
2017-08-12 10:00:00 24.6 30 Nordeste 43 Este 0 -- -- 27
2017-08-12 09:00:00 22.5 25 Nordeste 35 Nordeste 0 -- -- 29
2017-08-12 08:00:00 20.7 27 Nordeste 36 Nordeste 0 -- -- 29
2017-08-12 07:00:00 20.5 23 Nordeste 35 Nordeste 0 -- -- 27
2017-08-12 06:00:00 20.1 19 Nordeste 24 Nordeste 0 -- -- 26
2017-08-12 05:00:00 20.6 17 Nordeste 22 Nordeste 0 -- -- 25
2017-08-12 04:00:00 21.9 19 Nordeste 26 Nordeste 0 -- -- 23
2017-08-12 03:00:00 23 22 Nordeste 32 Nordeste 0 -- -- 22
2017-08-12 02:00:00 23.3 19 Nordeste 25 Nordeste 0 -- -- 21
2017-08-12 01:00:00 23.7 17 Nordeste 25 Nordeste 0 -- -- 20
2017-08-12 00:00:00 24.9 17 Nordeste 24 Nordeste 0 -- -- 19
2017-08-11 23:00:00 25.9 15 Nordeste 21 Nordeste 0 -- -- 22
2017-08-11 22:00:00 27 13 Nordeste 19 Nordeste 0 -- -- 23
2017-08-11 21:00:00 30.2 15 Nordeste 23 Nordeste 0 -- -- 20
2017-08-11 20:00:00 32 11 Nordeste 24 Norte 0 -- -- 18
2017-08-11 19:00:00 32.2 13 Nordeste 27 Nordeste 0 -- -- 17
2017-08-11 18:00:00 32.6 14 Norte 30 Nordeste 0 -- -- 14
2017-08-11 17:00:00 32.3 12 Norte 27 Norte 0 -- -- 14
2017-08-11 16:00:00 31.8 14 Norte 22 Noroeste 0 -- -- 15
2017-08-11 15:00:00 30.8 13 Nordeste 28 Nordeste 0 -- -- 18
2017-08-11 14:00:00 29.8 13 Este 27 Este 0 -- -- 22
2017-08-11 13:00:00 28.2 19 Este 32 Este 0 -- -- 24
2017-08-11 12:00:00 26.5 23 Este 36 Este 0 -- -- 28
2017-08-11 11:00:00 24.7 27 Este 39 Nordeste 0 -- -- 32
2017-08-11 10:00:00 22.4 24 Nordeste 39 Este 0 -- -- 36
2017-08-11 09:00:00 19.9 27 Este 35 Este 0 -- -- 40
2017-08-11 08:00:00 18.3 26 Este 37 Este 0 -- -- 40
2017-08-11 07:00:00 18.3 23 Este 32 Este 0 -- -- 37
2017-08-11 06:00:00 18.5 20 Nordeste 24 Nordeste 0 -- -- 38
2017-08-11 05:00:00 19.1 18 Nordeste 22 Nordeste 0 -- -- 36
2017-08-11 04:00:00 19.6 19 Nordeste 24 Nordeste 0 -- -- 36
2017-08-11 03:00:00 20 18 Nordeste 27 Nordeste 0 -- -- 35
2017-08-11 02:00:00 21.4 20 Nordeste 27 Nordeste 0 -- -- 33
2017-08-11 01:00:00 22.2 18 Nordeste 30 Nordeste 0 -- -- 31
2017-08-11 00:00:00 22.9 20 Nordeste 31 Nordeste 0 -- -- 29
2017-08-10 23:00:00 23.4 15 Nordeste 17 Nordeste 0 -- -- 25
2017-08-10 22:00:00 24.7 10 Nordeste 17 Nordeste 0 -- -- 23
2017-08-10 21:00:00 27.5 14 Nordeste 24 Nordeste 0 -- -- 20
2017-08-10 20:00:00 28.8 19 Nordeste 30 Nordeste 0 -- -- 18
2017-08-10 19:00:00 29.5 15 Nordeste 31 Nordeste 0 -- -- 15
2017-08-10 18:00:00 29.7 12 Nordeste 29 Nordeste 0 -- -- 15
2017-08-10 17:00:00 29.7 16 Nordeste 36 Este 0 -- -- 15
2017-08-10 16:00:00 28.5 16 Nordeste 31 Nordeste 0 -- -- 16
2017-08-10 15:00:00 27.2 23 Nordeste 36 Este 0 -- -- 18
2017-08-10 14:00:00 25.9 24 Este 40 Este 0 -- -- 21
2017-08-10 13:00:00 24.1 25 Este 45 Este 0 -- -- 24
2017-08-10 12:00:00 22.4 33 Este 52 Este 0 -- -- 28
2017-08-10 11:00:00 21.2 27 Nordeste 42 Nordeste 0 -- -- 30
2017-08-10 10:00:00 18.6 23 Nordeste 33 Nordeste 0 -- -- 38
2017-08-10 09:00:00 16.4 23 Nordeste 35 Nordeste 0 -- -- 44
2017-08-10 08:00:00 14.8 22 Nordeste 34 Nordeste 0 -- -- 48
2017-08-10 07:00:00 15.1 21 Norte 44 Nordeste 0 -- -- 47
2017-08-10 06:00:00 15.8 33 Nordeste 44 Nordeste 0 -- -- 46
2017-08-10 05:00:00 16.4 29 Nordeste 48 Nordeste 0 -- -- 43
2017-08-10 04:00:00 17.3 33 Nordeste 50 Nordeste 0 -- -- 41
2017-08-10 03:00:00 18.6 31 Nordeste 54 Nordeste 0 -- -- 38
2017-08-10 02:00:00 19.9 28 Nordeste 45 Norte 0 -- -- 35
2017-08-10 01:00:00 20.5 25 Norte 39 Norte 0 -- -- 29
2017-08-10 00:00:00 21.4 26 Norte 36 Norte 0 -- -- 26
2017-08-09 23:00:00 22.2 23 Norte 39 Norte 0 -- -- 25
2017-08-09 22:00:00 23.7 30 Norte 44 Nordeste 0 -- -- 24
2017-08-09 21:00:00 25.6 29 Norte 40 Norte 0 -- -- 22
2017-08-09 20:00:00 27.5 26 Norte 36 Norte 0 -- -- 20
2017-08-09 19:00:00 28.6 23 Norte 38 Norte 0 -- -- 21
2017-08-09 18:00:00 29.1 23 Norte 41 Norte 0 -- -- 22
2017-08-09 17:00:00 28.9 23 Norte 39 Norte 0 -- -- 23
2017-08-09 16:00:00 28.3 16 Norte 29 Noroeste 0 -- -- 25
2017-08-09 15:00:00 27.7 17 Norte 33 Norte 0 -- -- 23
2017-08-09 14:00:00 26.2 14 Noroeste 31 Noroeste 0 -- -- 27
2017-08-09 13:00:00 24.6 12 Noroeste 26 Noroeste 0 -- -- 33
2017-08-09 12:00:00 23.6 8 Noroeste 20 Noroeste 0 -- -- 35
2017-08-09 11:00:00 21.4 13 Norte 23 Norte 0 -- -- 40
2017-08-09 10:00:00 19.1 13 Noroeste 22 Noroeste 0 -- -- 48
2017-08-09 09:00:00 16.3 12 Noroeste 14 Noroeste 0 -- -- 61
2017-08-09 08:00:00 14 14 Noroeste 21 Norte 0 -- -- 68
2017-08-09 07:00:00 14 15 Noroeste 19 Norte 0 -- -- 69
2017-08-09 06:00:00 15.2 16 Norte 26 Norte 0 -- -- 63
2017-08-09 05:00:00 14.9 15 Norte 18 Norte 0 -- -- 66
2017-08-09 04:00:00 15.2 12 Noroeste 16 Noroeste 0 -- -- 64
2017-08-09 03:00:00 16 13 Noroeste 19 Noroeste 0 -- -- 61
2017-08-09 02:00:00 17.4 16 Noroeste 27 Noroeste 0 -- -- 57
2017-08-09 01:00:00 18.8 19 Noroeste 27 Noroeste 0 -- -- 52
2017-08-09 00:00:00 21.3 21 Noroeste 26 Noroeste 0 -- -- 44
2017-08-08 23:00:00 22.4 12 Noroeste 18 Norte 0 -- -- 27
2017-08-08 22:00:00 24.9 16 Norte 32 Noroeste 0 -- -- 21
2017-08-08 21:00:00 28 26 Noroeste 35 Noroeste 0 -- -- 20
2017-08-08 20:00:00 29.6 21 Noroeste 28 Noroeste 0 -- -- 21
2017-08-08 19:00:00 30.2 17 Noroeste 36 Norte 0 -- -- 21
2017-08-08 18:00:00 30.1 13 Norte 31 Norte 0 -- -- 20
2017-08-08 17:00:00 29.5 14 Norte 28 Noroeste 0 -- -- 20
2017-08-08 16:00:00 28.5 11 Noroeste 31 Noroeste 0 -- -- 20
2017-08-08 15:00:00 27.7 17 Noroeste 28 Noroeste 0 -- -- 23
2017-08-08 14:00:00 26.5 17 Noroeste 28 Norte 0 -- -- 25
2017-08-08 13:00:00 24.5 15 Noroeste 26 Noroeste 0 -- -- 30
2017-08-08 12:00:00 22.7 14 Noroeste 24 Noroeste 0 -- -- 38
2017-08-08 11:00:00 20.8 13 Noroeste 22 Noroeste 0 -- -- 45
2017-08-08 10:00:00 18.4 12 Noroeste 20 Noroeste 0 -- -- 59
2017-08-08 09:00:00 16.1 15 Noroeste 18 Noroeste 0 -- -- 72
2017-08-08 08:00:00 13.5 6 Noroeste 12 Noroeste 0 -- -- 82
2017-08-08 07:00:00 13.2 12 Noroeste 13 Noroeste 0 -- -- 82
2017-08-08 06:00:00 13.4 13 Noroeste 15 Noroeste 0 -- -- 79
2017-08-08 05:00:00 14 14 Noroeste 21 Noroeste 0 -- -- 76
2017-08-08 04:00:00 15 15 Noroeste 19 Noroeste 0 -- -- 73
2017-08-08 03:00:00 15.2 15 Noroeste 22 Noroeste 0 -- -- 71
2017-08-08 02:00:00 15.9 12 Oeste 28 Oeste 0 -- -- 65
2017-08-08 01:00:00 17.3 19 Oeste 28 Oeste 0 -- -- 60
2017-08-08 00:00:00 19 24 Noroeste 34 Oeste 0 -- -- 50
2017-08-07 23:00:00 21.4 24 Noroeste 33 Oeste 0 -- -- 35
2017-08-07 22:00:00 23.7 23 Oeste 37 Oeste 0 -- -- 29
2017-08-07 21:00:00 26.5 23 Noroeste 39 Oeste 0 -- -- 29
2017-08-07 20:00:00 28.7 27 Oeste 39 Oeste 0 -- -- 20
2017-08-07 19:00:00 31 29 Oeste 44 Oeste 0 -- -- 14
2017-08-07 18:00:00 33.6 29 Oeste 43 Oeste 0 -- -- 14
2017-08-07 17:00:00 34 27 Sudoeste 38 Oeste 0 -- -- 14
2017-08-07 16:00:00 33.8 25 Oeste 43 Oeste 0 -- -- 9
2017-08-07 15:00:00 33.2 24 Oeste 35 Oeste 0 -- -- 11
2017-08-07 14:00:00 31.7 20 Oeste 30 Oeste 0 -- -- 15
2017-08-07 13:00:00 29.2 18 Oeste 25 Oeste 0 -- -- 22
2017-08-07 12:00:00 26 10 Oeste 16 Noroeste 0 -- -- 37
2017-08-07 11:00:00 23.1 11 Noroeste 20 Noroeste 0 -- -- 45
2017-08-07 10:00:00 21 10 Noroeste 14 Noroeste 0 -- -- 50
2017-08-07 09:00:00 19.5 5 Noroeste 15 Oeste 0 -- -- 56
2017-08-07 08:00:00 17 11 Oeste 17 Oeste 0 -- -- 62
2017-08-07 07:00:00 17.6 7 Noroeste 16 Oeste 0 -- -- 63
2017-08-07 06:00:00 18.5 14 Oeste 17 Oeste 0 -- -- 60
2017-08-07 05:00:00 19.4 10 Sudoeste 12 Sudoeste 0 -- -- 57
2017-08-07 04:00:00 20.6 10 Oeste 19 Oeste 0 -- -- 54
2017-08-07 03:00:00 20.8 14 Oeste 17 Oeste 0 -- -- 51
2017-08-07 02:00:00 22.6 14 Sudoeste 22 Oeste 0 -- -- 49
2017-08-07 01:00:00 25.3 19 Oeste 29 Oeste 0 -- -- 38
2017-08-07 00:00:00 26.2 21 Oeste 27 Oeste 0 -- -- 40
2017-08-06 23:00:00 28 21 Oeste 29 Oeste 0 -- -- 38
2017-08-06 22:00:00 30.5 18 Oeste 25 Oeste 0 -- -- 20
2017-08-06 21:00:00 33.9 12 Noroeste 21 Noroeste 0 -- -- 18
2017-08-06 20:00:00 35.3 13 Noroeste 27 Noroeste 0 -- -- 17
2017-08-06 19:00:00 35.4 12 Noroeste 26 Noroeste 0 -- -- 18
2017-08-06 18:00:00 35.5 15 Oeste 27 Oeste 0 -- -- 20
2017-08-06 17:00:00 35.2 11 Oeste 24 Noroeste 0 -- -- 20
2017-08-06 16:00:00 33.9 6 Norte 21 Noroeste 0 -- -- 27
2017-08-06 15:00:00 32.6 9 Noroeste 23 Noroeste 0 -- -- 30
2017-08-06 14:00:00 31.4 4 Oeste 18 Norte 0 -- -- 33
2017-08-06 13:00:00 29.7 9 Noroeste 19 Norte 0 -- -- 36
2017-08-06 12:00:00 27.7 9 Norte 18 Nordeste 0 -- -- 40
2017-08-06 11:00:00 26 15 Nordeste 23 Norte 0 -- -- 43
2017-08-06 10:00:00 23.6 13 Norte 19 Nordeste 0 -- -- 50
2017-08-06 09:00:00 21.1 4 Norte 13 Norte 0 -- -- 57
2017-08-06 08:00:00 18.3 9 Noroeste 11 Noroeste 0 -- -- 64
2017-08-06 07:00:00 18.3 8 Noroeste 10 Noroeste 0 -- -- 62
2017-08-06 06:00:00 18.7 10 Noroeste 13 Noroeste 0 -- -- 60
2017-08-06 05:00:00 19.3 9 Noroeste 15 Oeste 0 -- -- 56
2017-08-06 04:00:00 20.1 12 Oeste 19 Noroeste 0 -- -- 53
2017-08-06 03:00:00 20.7 14 Noroeste 18 Oeste 0 -- -- 53
2017-08-06 02:00:00 21.8 16 Noroeste 22 Noroeste 0 -- -- 51
2017-08-06 01:00:00 23.2 16 Noroeste 24 Oeste 0 -- -- 47
2017-08-06 00:00:00 25.4 19 Oeste 31 Oeste 0 -- -- 40
2017-08-05 23:00:00 27.6 23 Oeste 33 Oeste 0 -- -- 33
2017-08-05 22:00:00 30.1 23 Oeste 34 Oeste 0 -- -- 27
2017-08-05 21:00:00 33.7 24 Oeste 38 Oeste 0 -- -- 22
2017-08-05 20:00:00 36.2 22 Oeste 34 Oeste 0 -- -- 20
2017-08-05 19:00:00 37.6 20 Oeste 45 Noroeste 0 -- -- 19
2017-08-05 18:00:00 37.9 19 Noroeste 34 Oeste 0 -- -- 19
2017-08-05 17:00:00 37.6 20 Oeste 33 Oeste 0 -- -- 19
2017-08-05 16:00:00 37.5 19 Oeste 35 Oeste 0 -- -- 19
2017-08-05 15:00:00 36.7 18 Noroeste 37 Oeste 0 -- -- 22
2017-08-05 14:00:00 35.5 14 Oeste 26 Oeste 0 -- -- 23
2017-08-05 13:00:00 33.8 13 Oeste 21 Noroeste 0 -- -- 27
2017-08-05 12:00:00 31.4 7 Noroeste 18 Oeste 0 -- -- 31
2017-08-05 11:00:00 28.5 9 Noroeste 17 Norte 0 -- -- 42
2017-08-05 10:00:00 25.4 12 Noroeste 16 Noroeste 0 -- -- 51
2017-08-05 09:00:00 22.8 13 Noroeste 15 Noroeste 0 -- -- 57
2017-08-05 08:00:00 20.4 12 Noroeste 15 Noroeste 0 -- -- 62
2017-08-05 07:00:00 20.8 14 Noroeste 16 Noroeste 0 -- -- 59
2017-08-05 06:00:00 21.6 12 Noroeste 17 Noroeste 0 -- -- 55
2017-08-05 05:00:00 22.6 16 Noroeste 18 Noroeste 0 -- -- 53
2017-08-05 04:00:00 23.6 17 Noroeste 22 Noroeste 0 -- -- 52
2017-08-05 03:00:00 24.4 16 Norte 17 Noroeste 0 -- -- 48
2017-08-05 02:00:00 25.7 13 Noroeste 19 Noroeste 0 -- -- 44
2017-08-05 01:00:00 27.1 16 Noroeste 19 Noroeste 0 -- -- 40
2017-08-05 00:00:00 28.4 15 Noroeste 21 Noroeste 0 -- -- 34
2017-08-04 23:00:00 30.9 19 Noroeste 35 Noroeste 0 -- -- 28
2017-08-04 22:00:00 33.8 23 Noroeste 40 Oeste 0 -- -- 21
2017-08-04 21:00:00 37.2 13 Oeste 25 Oeste 0 -- -- 24
2017-08-04 20:00:00 38.6 19 Noroeste 27 Oeste 0 -- -- 19
2017-08-04 19:00:00 39.4 21 Oeste 31 Noroeste 0 -- -- 18
2017-08-04 18:00:00 39.2 7 Noroeste 26 Noroeste 0 -- -- 20
2017-08-04 17:00:00 38.9 10 Oeste 28 Oeste 0 -- -- 22
2017-08-04 16:00:00 38 16 Noroeste 24 Oeste 0 -- -- 24
2017-08-04 15:00:00 37 13 Noroeste 21 Norte 0 -- -- 26
2017-08-04 14:00:00 35.7 10 Nordeste 24 Norte 0 -- -- 28
2017-08-04 13:00:00 34.1 14 Norte 26 Noroeste 0 -- -- 32
2017-08-04 12:00:00 32.3 16 Norte 27 Norte 0 -- -- 37
2017-08-04 11:00:00 30.5 15 Norte 22 Norte 0 -- -- 40
2017-08-04 10:00:00 28.3 16 Norte 22 Norte 0 -- -- 46
2017-08-04 09:00:00 23.9 8 Norte 14 Noroeste 0 -- -- 58
2017-08-04 08:00:00 21.1 13 Norte 18 Noroeste 0 -- -- 66
2017-08-04 07:00:00 21 15 Noroeste 16 Noroeste 0 -- -- 66
2017-08-04 06:00:00 21.4 11 Noroeste 14 Noroeste 0 -- -- 64
2017-08-04 05:00:00 21.9 13 Noroeste 17 Noroeste 0 -- -- 63
2017-08-04 04:00:00 22.2 14 Noroeste 16 Noroeste 0 -- -- 63
2017-08-04 03:00:00 23.4 4 Nordeste 21 Noroeste 0 -- -- 61
2017-08-04 02:00:00 24.6 15 Noroeste 22 Noroeste 0 -- -- 58
2017-08-04 01:00:00 25.8 17 Noroeste 21 Noroeste 0 -- -- 55
2017-08-04 00:00:00 27.6 17 Noroeste 26 Noroeste 0 -- -- 50
2017-08-03 23:00:00 29.5 22 Noroeste 29 Noroeste 0 -- -- 44
2017-08-03 22:00:00 31.4 22 Noroeste 34 Noroeste 0 -- -- 37
2017-08-03 21:00:00 34.1 22 Noroeste 35 Oeste 0 -- -- 31
2017-08-03 20:00:00 35.6 19 Noroeste 28 Noroeste 0 -- -- 27
2017-08-03 19:00:00 36.3 17 Noroeste 40 Norte 0 -- -- 26
2017-08-03 18:00:00 36.4 14 Noroeste 29 Noroeste 0 -- -- 25
2017-08-03 17:00:00 35.8 12 Noroeste 31 Noroeste 0 -- -- 24
2017-08-03 16:00:00 35.1 10 Oeste 34 Noroeste 0 -- -- 24
2017-08-03 15:00:00 34.3 14 Oeste 26 Noroeste 0 -- -- 21
2017-08-03 14:00:00 33.1 12 Noroeste 23 Noroeste 0 -- -- 21
2017-08-03 13:00:00 31.6 9 Norte 21 Norte 0 -- -- 23
2017-08-03 12:00:00 29.9 11 Norte 17 Norte 0 -- -- 26
2017-08-03 11:00:00 26.4 8 Norte 14 Norte 0 -- -- 34
2017-08-03 10:00:00 23.3 8 Noroeste 14 Noroeste 0 -- -- 41
2017-08-03 09:00:00 20 10 Noroeste 13 Noroeste 0 -- -- 50
2017-08-03 08:00:00 17.2 9 Noroeste 13 Noroeste 0 -- -- 57
2017-08-03 07:00:00 16.8 11 Noroeste 15 Noroeste 0 -- -- 57
2017-08-03 06:00:00 17.3 13 Noroeste 15 Noroeste 0 -- -- 53
2017-08-03 05:00:00 18.5 7 Oeste 14 Noroeste 0 -- -- 48
2017-08-03 04:00:00 18.8 12 Noroeste 15 Noroeste 0 -- -- 46
2017-08-03 03:00:00 19.8 13 Noroeste 19 Noroeste 0 -- -- 42
2017-08-03 02:00:00 21.2 14 Noroeste 19 Noroeste 0 -- -- 38
2017-08-03 01:00:00 22.4 13 Noroeste 26 Noroeste 0 -- -- 37
2017-08-03 00:00:00 24.1 21 Noroeste 27 Oeste 0 -- -- 35
2017-08-02 23:00:00 26.3 21 Oeste 33 Oeste 0 -- -- 33
2017-08-02 22:00:00 28.7 17 Oeste 27 Oeste 0 -- -- 21
2017-08-02 21:00:00 32.6 12 Noroeste 23 Noroeste 0 -- -- 16
2017-08-02 20:00:00 34.3 10 Noroeste 22 Noroeste 0 -- -- 15
2017-08-02 19:00:00 35 11 Oeste 23 Oeste 0 -- -- 16
2017-08-02 18:00:00 34.7 5 Oeste 31 Noroeste 0 -- -- 16
2017-08-02 17:00:00 33.7 9 Norte 20 Norte 0 -- -- 17
2017-08-02 16:00:00 33.6 8 Oeste 21 Oeste 0 -- -- 17
2017-08-02 15:00:00 32.1 10 Noroeste 22 Oeste 0 -- -- 20
2017-08-02 14:00:00 31.4 8 Oeste 20 Noroeste 0 -- -- 22
2017-08-02 13:00:00 29.4 7 Noroeste 14 Sudoeste 0 -- -- 26
2017-08-02 12:00:00 27.3 5 Noroeste 10 Oeste 0 -- -- 31
2017-08-02 11:00:00 24.2 4 Oeste 10 Oeste 0 -- -- 38
2017-08-02 10:00:00 21.2 8 Noroeste 11 Oeste 0 -- -- 47
2017-08-02 09:00:00 17.8 10 Noroeste 13 Noroeste 0 -- -- 56
2017-08-02 08:00:00 15.2 8 Noroeste 10 Noroeste 0 -- -- 64
2017-08-02 07:00:00 15.3 8 Noroeste 12 Noroeste 0 -- -- 62
2017-08-02 06:00:00 15.2 13 Noroeste 15 Noroeste 0 -- -- 62
2017-08-02 05:00:00 15.6 12 Noroeste 17 Noroeste 0 -- -- 61
2017-08-02 04:00:00 16.3 13 Noroeste 15 Oeste 0 -- -- 58
2017-08-02 03:00:00 17.1 13 Noroeste 17 Noroeste 0 -- -- 55
2017-08-02 02:00:00 18.1 15 Noroeste 20 Oeste 0 -- -- 52
2017-08-02 01:00:00 19.4 13 Noroeste 27 Oeste 0 -- -- 48
2017-08-02 00:00:00 21.1 18 Noroeste 29 Noroeste 0 -- -- 40
2017-08-01 23:00:00 23.5 23 Noroeste 33 Oeste 0 -- -- 34
2017-08-01 22:00:00 25.9 24 Oeste 32 Oeste 0 -- -- 31
2017-08-01 21:00:00 29.1 11 Oeste 18 Noroeste 0 -- -- 20
2017-08-01 20:00:00 30.4 13 Oeste 22 Noroeste 0 -- -- 18
2017-08-01 19:00:00 30.9 10 Oeste 25 Norte 0 -- -- 17
2017-08-01 18:00:00 30.6 10 Noroeste 31 Oeste 0 -- -- 19
2017-08-01 17:00:00 30.2 18 Noroeste 29 Noroeste 0 -- -- 21
2017-08-01 16:00:00 29.8 13 Oeste 26 Noroeste 0 -- -- 21
2017-08-01 15:00:00 29.2 12 Oeste 27 Oeste 0 -- -- 26
2017-08-01 14:00:00 27.7 11 Noroeste 25 Oeste 0 -- -- 27
2017-08-01 13:00:00 25.8 8 Oeste 18 Noroeste 0 -- -- 35
2017-08-01 12:00:00 24 10 Noroeste 18 Noroeste 0 -- -- 39
2017-08-01 11:00:00 21.7 6 Noroeste 16 Noroeste 0 -- -- 42
2017-08-01 10:00:00 18.5 10 Noroeste 16 Noroeste 0 -- -- 50
2017-08-01 09:00:00 16.1 13 Noroeste 17 Noroeste 0 -- -- 58
2017-08-01 08:00:00 13.9 10 Oeste 15 Oeste 0 -- -- 63
2017-08-01 07:00:00 14.1 9 Oeste 20 Noroeste 0 -- -- 62
2017-08-01 06:00:00 15 17 Noroeste 21 Noroeste 0 -- -- 59
2017-08-01 05:00:00 15.5 14 Noroeste 17 Noroeste 0 -- -- 58
2017-08-01 04:00:00 16.2 13 Oeste 16 Oeste 0 -- -- 57
2017-08-01 03:00:00 17.1 5 Oeste 26 Noroeste 0 -- -- 59
2017-08-01 02:00:00 18.4 18 Noroeste 27 Noroeste 0 -- -- 58
2017-08-01 01:00:00 19.6 21 Noroeste 27 Oeste 0 -- -- 57
2017-08-01 00:00:00 19.9 16 Oeste 23 Oeste 0 -- -- 56
2017-07-31 23:00:00 19.8 15 Oeste 20 Oeste 0 -- -- 58
2017-07-31 22:00:00 19.3 14 Noroeste 22 Noroeste 0 -- -- 62
2017-07-31 21:00:00 19.4 14 Noroeste 33 Noroeste 0 -- -- 62
2017-07-31 20:00:00 21.2 29 Noroeste 45 Noroeste 0 -- -- 47
2017-07-31 19:00:00 23 36 Noroeste 48 Noroeste 0 -- -- 40
2017-07-31 18:00:00 28.1 42 Noroeste 56 Oeste 0 -- -- 27
2017-07-31 17:00:00 30.6 22 Oeste 34 Oeste 0 -- -- 18
2017-07-31 16:00:00 31 13 Oeste 25 Oeste 0 -- -- 15
2017-07-31 15:00:00 29.6 13 Oeste 27 Noroeste 0 -- -- 18
2017-07-31 14:00:00 28 12 Oeste 32 Noroeste 0 -- -- 27
2017-07-31 13:00:00 26.5 8 Oeste 16 Oeste 0 -- -- 34
2017-07-31 12:00:00 24.6 6 Sudoeste 15 Oeste 0 -- -- 40
2017-07-31 11:00:00 21.9 5 Oeste 11 Oeste 0 -- -- 47
2017-07-31 10:00:00 19.7 6 Oeste 13 Oeste 0 -- -- 54
2017-07-31 09:00:00 16.8 10 Oeste 14 Oeste 0 -- -- 62
2017-07-31 08:00:00 14.3 12 Noroeste 26 Oeste 0 -- -- 71
2017-07-31 07:00:00 14.6 8 Oeste 19 Oeste 0 -- -- 67
2017-07-31 06:00:00 15.2 14 Noroeste 22 Noroeste 0 -- -- 66
2017-07-31 05:00:00 15.8 13 Oeste 17 Oeste 0 -- -- 64
2017-07-31 04:00:00 16.2 12 Oeste 17 Oeste 0 -- -- 63
2017-07-31 03:00:00 17.5 15 Oeste 23 Oeste 0 -- -- 60
2017-07-31 02:00:00 18.8 5 Noroeste 29 Oeste 0 -- -- 55
2017-07-31 01:00:00 20.9 25 Noroeste 31 Oeste 0 -- -- 45
2017-07-31 00:00:00 23 24 Noroeste 33 Oeste 0 -- -- 36
2017-07-30 23:00:00 25 23 Noroeste 30 Oeste 0 -- -- 29
2017-07-30 22:00:00 27.6 21 Noroeste 32 Oeste 0 -- -- 29
2017-07-30 21:00:00 31.1 23 Oeste 32 Oeste 0 -- -- 23
2017-07-30 20:00:00 33 23 Oeste 36 Oeste 0 -- -- 19
2017-07-30 19:00:00 35 24 Oeste 37 Oeste 0 -- -- 19
2017-07-30 18:00:00 35.1 22 Oeste 39 Oeste 0 -- -- 19
2017-07-30 17:00:00 35.2 22 Oeste 34 Noroeste 0 -- -- 19
2017-07-30 16:00:00 34.8 19 Oeste 34 Oeste 0 -- -- 19
2017-07-30 15:00:00 33.7 13 Oeste 28 Oeste 0 -- -- 21
2017-07-30 14:00:00 32.4 13 Oeste 22 Oeste 0 -- -- 25
2017-07-30 13:00:00 30.5 14 Noroeste 23 Oeste 0 -- -- 29
2017-07-30 12:00:00 28.5 9 Noroeste 19 Noroeste 0 -- -- 34
2017-07-30 11:00:00 25.8 8 Noroeste 16 Noroeste 0 -- -- 40
2017-07-30 10:00:00 22.4 9 Noroeste 16 Noroeste 0 -- -- 57
2017-07-30 09:00:00 19.6 9 Noroeste 13 Noroeste 0 -- -- 70
2017-07-30 08:00:00 17.6 9 Noroeste 13 Noroeste 0 -- -- 78
2017-07-30 07:00:00 17.8 12 Noroeste 14 Noroeste 0 -- -- 77
2017-07-30 06:00:00 18.3 12 Noroeste 17 Noroeste 0 -- -- 77
2017-07-30 05:00:00 19 12 Noroeste 22 Noroeste 0 -- -- 73
2017-07-30 04:00:00 20.2 18 Noroeste 22 Noroeste 0 -- -- 69
2017-07-30 03:00:00 21.1 15 Noroeste 22 Noroeste 0 -- -- 66
2017-07-30 02:00:00 22.5 12 Noroeste 20 Noroeste 0 -- -- 62
2017-07-30 01:00:00 24.3 19 Noroeste 29 Noroeste 0 -- -- 54
2017-07-30 00:00:00 26.4 19 Noroeste 34 Oeste 0 -- -- 40
2017-07-29 23:00:00 28.6 26 Oeste 37 Oeste 0 -- -- 44
2017-07-29 22:00:00 31.4 21 Noroeste 33 Oeste 0 -- -- 28
2017-07-29 21:00:00 34.6 24 Oeste 32 Oeste 0 -- -- 26
2017-07-29 20:00:00 36.3 12 Oeste 28 Oeste 0 -- -- 24
2017-07-29 19:00:00 36.7 17 Noroeste 28 Oeste 0 -- -- 20
2017-07-29 18:00:00 37.1 13 Oeste 31 Oeste 0 -- -- 17
2017-07-29 17:00:00 36.7 18 Noroeste 30 Oeste 0 -- -- 19
2017-07-29 16:00:00 36 15 Oeste 33 Oeste 0 -- -- 23
2017-07-29 15:00:00 34.6 14 Oeste 32 Oeste 0 -- -- 28
2017-07-29 14:00:00 33.3 12 Noroeste 24 Noroeste 0 -- -- 31
2017-07-29 13:00:00 31.6 13 Noroeste 23 Noroeste 0 -- -- 33
2017-07-29 12:00:00 29.6 10 Norte 16 Nordeste 0 -- -- 38
2017-07-29 11:00:00 26.6 9 Noroeste 13 Noroeste 0 -- -- 47
2017-07-29 10:00:00 24.3 8 Noroeste 17 Noroeste 0 -- -- 54
2017-07-29 09:00:00 22.3 13 Noroeste 17 Noroeste 0 -- -- 60
2017-07-29 08:00:00 19.6 9 Oeste 14 Noroeste 0 -- -- 69
2017-07-29 07:00:00 19.6 11 Noroeste 14 Oeste 0 -- -- 68
2017-07-29 06:00:00 20.1 10 Noroeste 15 Noroeste 0 -- -- 65
2017-07-29 05:00:00 20.5 14 Noroeste 17 Noroeste 0 -- -- 64
2017-07-29 04:00:00 21.4 14 Noroeste 17 Noroeste 0 -- -- 60
2017-07-29 03:00:00 22.1 13 Noroeste 19 Noroeste 0 -- -- 57
2017-07-29 02:00:00 22.7 15 Noroeste 18 Noroeste 0 -- -- 51
2017-07-29 01:00:00 24.1 15 Noroeste 24 Oeste 0 -- -- 42
2017-07-29 00:00:00 25.7 18 Noroeste 30 Noroeste 0 -- -- 34
2017-07-28 23:00:00 27.7 20 Noroeste 30 Oeste 0 -- -- 32
2017-07-28 22:00:00 30.3 22 Noroeste 36 Oeste 0 -- -- 26
2017-07-28 21:00:00 33.6 30 Noroeste 38 Oeste 0 -- -- 25
2017-07-28 20:00:00 36.2 19 Oeste 32 Oeste 0 -- -- 20
2017-07-28 19:00:00 37.3 15 Oeste 30 Oeste 0 -- -- 16
2017-07-28 18:00:00 37.3 15 Sudoeste 36 Oeste 0 -- -- 15
2017-07-28 17:00:00 36.8 15 Oeste 35 Oeste 0 -- -- 15
2017-07-28 16:00:00 36.1 17 Noroeste 28 Noroeste 0 -- -- 18
2017-07-28 15:00:00 35.5 16 Oeste 26 Oeste 0 -- -- 20
2017-07-28 14:00:00 34.1 8 Oeste 25 Oeste 0 -- -- 23
2017-07-28 13:00:00 32.4 11 Noroeste 21 Norte 0 -- -- 27
2017-07-28 12:00:00 30.5 12 Noroeste 21 Noroeste 0 -- -- 30
2017-07-28 11:00:00 27.8 14 Noroeste 20 Noroeste 0 -- -- 34
2017-07-28 10:00:00 24.9 12 Noroeste 20 Norte 0 -- -- 43
2017-07-28 09:00:00 21.7 10 Noroeste 15 Norte 0 -- -- 50
2017-07-28 08:00:00 18.7 9 Noroeste 14 Noroeste 0 -- -- 57
2017-07-28 07:00:00 18.3 9 Noroeste 11 Noroeste 0 -- -- 59
2017-07-28 06:00:00 18.7 11 Noroeste 14 Noroeste 0 -- -- 59
2017-07-28 05:00:00 19.3 13 Noroeste 17 Noroeste 0 -- -- 57
2017-07-28 04:00:00 19.7 14 Noroeste 17 Noroeste 0 -- -- 55
2017-07-28 03:00:00 21.2 14 Noroeste 21 Noroeste 0 -- -- 50
2017-07-28 02:00:00 23 19 Noroeste 23 Noroeste 0 -- -- 46
2017-07-28 01:00:00 24.5 16 Noroeste 21 Noroeste 0 -- -- 43
2017-07-28 00:00:00 26.6 18 Noroeste 24 Noroeste 0 -- -- 37
2017-07-27 23:00:00 28.4 19 Oeste 30 Oeste 0 -- -- 34
2017-07-27 22:00:00 30.1 20 Oeste 33 Oeste 0 -- -- 29
2017-07-27 21:00:00 33.3 24 Oeste 35 Oeste 0 -- -- 24
2017-07-27 20:00:00 36.3 20 Noroeste 31 Oeste 0 -- -- 14
2017-07-27 19:00:00 37.5 16 Noroeste 29 Oeste 0 -- -- 14
2017-07-27 18:00:00 37.9 14 Oeste 32 Oeste 0 -- -- 16
2017-07-27 17:00:00 37.8 15 Sudoeste 27 Sudoeste 0 -- -- 18
2017-07-27 16:00:00 36.7 13 Noroeste 22 Noroeste 0 -- -- 19
2017-07-27 15:00:00 35.7 13 Oeste 27 Oeste 0 -- -- 20
2017-07-27 14:00:00 34.6 12 Noroeste 22 Noroeste 0 -- -- 22
2017-07-27 13:00:00 33.3 10 Oeste 16 Oeste 0 -- -- 23
2017-07-27 12:00:00 31 9 Noroeste 17 Noroeste 0 -- -- 27
2017-07-27 11:00:00 28.8 8 Noroeste 15 Noroeste 0 -- -- 30
2017-07-27 10:00:00 26.7 11 Noroeste 15 Noroeste 0 -- -- 33
2017-07-27 09:00:00 24.2 7 Noroeste 9 Noroeste 0 -- -- 37
2017-07-27 08:00:00 22 8 Noroeste 11 Noroeste 0 -- -- 41
2017-07-27 07:00:00 21.5 10 Noroeste 12 Noroeste 0 -- -- 43
2017-07-27 06:00:00 21.8 12 Noroeste 14 Noroeste 0 -- -- 43
2017-07-27 05:00:00 22.3 11 Noroeste 14 Noroeste 0 -- -- 44
2017-07-27 04:00:00 22.8 13 Noroeste 18 Noroeste 0 -- -- 45
2017-07-27 03:00:00 24.6 15 Noroeste 16 Noroeste 0 -- -- 41
2017-07-27 02:00:00 25.6 14 Noroeste 18 Noroeste 0 -- -- 38
2017-07-27 01:00:00 26.6 16 Norte 23 Norte 0 -- -- 36
2017-07-27 00:00:00 28.6 18 Norte 24 Noroeste 0 -- -- 33
2017-07-26 23:00:00 30.1 10 Oeste 25 Oeste 0 -- -- 30
2017-07-26 22:00:00 33.1 6 Oeste 9 Oeste 0 -- -- 22
2017-07-26 21:00:00 35.5 7 Noroeste 15 Norte 0 -- -- 20
2017-07-26 20:00:00 36.1 9 Nordeste 17 Oeste 0 -- -- 19
2017-07-26 19:00:00 36.8 7 Nordeste 18 Este 0 -- -- 18
2017-07-26 18:00:00 36.7 10 Noroeste 27 Noroeste 0 -- -- 19
2017-07-26 17:00:00 36.2 12 Norte 22 Nordeste 0 -- -- 20
2017-07-26 16:00:00 35.6 12 Nordeste 27 Nordeste 0 -- -- 20
2017-07-26 15:00:00 34.7 16 Norte 27 Norte 0 -- -- 21
2017-07-26 14:00:00 34.1 10 Norte 32 Este 0 -- -- 21
2017-07-26 13:00:00 32.9 8 Nordeste 23 Este 0 -- -- 22
2017-07-26 12:00:00 31.5 13 Este 27 Este 0 -- -- 24
2017-07-26 11:00:00 29.3 16 Este 31 Nordeste 0 -- -- 27
2017-07-26 10:00:00 27.2 22 Este 34 Este 0 -- -- 29
2017-07-26 09:00:00 25.4 18 Este 30 Este 0 -- -- 31
2017-07-26 08:00:00 22.8 21 Nordeste 28 Nordeste 0 -- -- 34
2017-07-26 07:00:00 21.7 17 Nordeste 24 Nordeste 0 -- -- 35
2017-07-26 06:00:00 22.6 18 Nordeste 25 Nordeste 0 -- -- 34
2017-07-26 05:00:00 22.7 18 Nordeste 23 Nordeste 0 -- -- 34
2017-07-26 04:00:00 22.8 18 Nordeste 21 Nordeste 0 -- -- 35
2017-07-26 03:00:00 22.9 17 Norte 21 Norte 0 -- -- 34
2017-07-26 02:00:00 23.4 13 Noroeste 24 Norte 0 -- -- 32
2017-07-26 01:00:00 25.1 15 Norte 23 Norte 0 -- -- 30
2017-07-26 00:00:00 26.6 17 Nordeste 25 Nordeste 0 -- -- 27
2017-07-25 23:00:00 27.7 17 Norte 24 Norte 0 -- -- 26
2017-07-25 22:00:00 29.8 21 Norte 36 Nordeste 0 -- -- 23
2017-07-25 21:00:00 32.3 22 Norte 35 Norte 0 -- -- 20
2017-07-25 20:00:00 34.2 18 Norte 37 Noroeste 0 -- -- 19
2017-07-25 19:00:00 35.2 18 Norte 34 Norte 0 -- -- 18
2017-07-25 18:00:00 35.1 21 Norte 34 Nordeste 0 -- -- 17
2017-07-25 17:00:00 34.8 18 Norte 35 Norte 0 -- -- 18
2017-07-25 16:00:00 34 14 Norte 31 Norte 0 -- -- 20
2017-07-25 15:00:00 33 13 Norte 28 Norte 0 -- -- 21
2017-07-25 14:00:00 31.7 15 Norte 31 Nordeste 0 -- -- 27
2017-07-25 13:00:00 30.7 15 Nordeste 28 Norte 0 -- -- 29
2017-07-25 12:00:00 29.7 15 Norte 26 Norte 0 -- -- 31
2017-07-25 11:00:00 28.1 16 Nordeste 32 Nordeste 0 -- -- 35
2017-07-25 10:00:00 25.9 23 Nordeste 32 Nordeste 0 -- -- 39
2017-07-25 09:00:00 23.1 21 Nordeste 28 Nordeste 0 -- -- 44
2017-07-25 08:00:00 21.1 19 Nordeste 26 Nordeste 0 -- -- 48
2017-07-25 07:00:00 21.1 22 Nordeste 33 Nordeste 0 -- -- 47
2017-07-25 06:00:00 20.9 19 Norte 24 Nordeste 0 -- -- 46
2017-07-25 05:00:00 19.9 16 Norte 21 Norte 0 -- -- 46
2017-07-25 04:00:00 21.4 18 Norte 23 Norte 0 -- -- 41
2017-07-25 03:00:00 21.6 15 Norte 26 Norte 0 -- -- 37
2017-07-25 02:00:00 24.4 20 Norte 28 Norte 0 -- -- 33
2017-07-25 01:00:00 24.3 17 Norte 22 Norte 0 -- -- 27
2017-07-25 00:00:00 26.4 18 Norte 24 Norte 0 -- -- 24
2017-07-24 23:00:00 27.5 19 Norte 24 Norte 0 -- -- 21
2017-07-24 22:00:00 28.8 15 Norte 30 Norte 0 -- -- 23
2017-07-24 21:00:00 31.8 23 Norte 37 Norte 0 -- -- 20
2017-07-24 20:00:00 33.4 31 Norte 41 Norte 0 -- -- 20
2017-07-24 19:00:00 34.5 22 Norte 42 Noroeste 0 -- -- 20
2017-07-24 18:00:00 34.6 11 Norte 33 Norte 0 -- -- 23
2017-07-24 17:00:00 34.2 18 Norte 31 Norte 0 -- -- 24
2017-07-24 16:00:00 33.3 15 Norte 29 Noroeste 0 -- -- 24
2017-07-24 15:00:00 32.3 17 Noroeste 33 Norte 0 -- -- 26
2017-07-24 14:00:00 30.9 21 Norte 37 Norte 0 -- -- 30
2017-07-24 13:00:00 29.5 20 Norte 36 Norte 0 -- -- 35
2017-07-24 12:00:00 27.5 19 Norte 33 Norte 0 -- -- 40
2017-07-24 11:00:00 25.4 21 Norte 35 Norte 0 -- -- 46
2017-07-24 10:00:00 23.5 24 Norte 33 Norte 0 -- -- 52
2017-07-24 09:00:00 22 17 Norte 25 Nordeste 0 -- -- 56
2017-07-24 08:00:00 19.3 15 Norte 24 Norte 0 -- -- 66
2017-07-24 07:00:00 18.6 13 Norte 23 Norte 0 -- -- 71
2017-07-24 06:00:00 19.7 11 Norte 16 Norte 0 -- -- 69
2017-07-24 05:00:00 19.9 12 Noroeste 18 Noroeste 0 -- -- 69
2017-07-24 04:00:00 20.7 15 Norte 19 Norte 0 -- -- 67
2017-07-24 03:00:00 21.4 14 Noroeste 18 Noroeste 0 -- -- 64
2017-07-24 02:00:00 22.4 9 Noroeste 14 Noroeste 0 -- -- 59
2017-07-24 01:00:00 23.8 12 Noroeste 22 Noroeste 0 -- -- 53
2017-07-24 00:00:00 25.5 19 Noroeste 29 Noroeste 0 -- -- 46
2017-07-23 23:00:00 27.4 23 Noroeste 38 Noroeste 0 -- -- 40
2017-07-23 22:00:00 29.4 32 Noroeste 43 Noroeste 0 -- -- 34
2017-07-23 21:00:00 32.5 21 Norte 32 Norte 0 -- -- 19
2017-07-23 20:00:00 34.2 22 Norte 34 Noroeste 0 -- -- 18
2017-07-23 19:00:00 34.5 10 Norte 28 Noroeste 0 -- -- 20
2017-07-23 18:00:00 34.6 9 Noroeste 30 Noroeste 0 -- -- 20
2017-07-23 17:00:00 34 15 Noroeste 35 Noroeste 0 -- -- 20
2017-07-23 16:00:00 33.2 15 Oeste 29 Noroeste 0 -- -- 21
2017-07-23 15:00:00 32.6 10 Oeste 26 Oeste 0 -- -- 22
2017-07-23 14:00:00 31.8 9 Noroeste 23 Noroeste 0 -- -- 25
2017-07-23 13:00:00 30.1 8 Oeste 20 Oeste 0 -- -- 32
2017-07-23 12:00:00 28.3 10 Noroeste 19 Noroeste 0 -- -- 35
2017-07-23 11:00:00 26.7 10 Norte 20 Noroeste 0 -- -- 38
2017-07-23 10:00:00 23.6 10 Norte 17 Noroeste 0 -- -- 46
2017-07-23 09:00:00 19.3 14 Noroeste 17 Noroeste 0 -- -- 64
2017-07-23 08:00:00 16.8 9 Noroeste 14 Noroeste 0 -- -- 73
2017-07-23 07:00:00 16.4 10 Noroeste 17 Noroeste 0 -- -- 74
2017-07-23 06:00:00 17 13 Noroeste 15 Noroeste 0 -- -- 71
2017-07-23 05:00:00 17.8 14 Noroeste 18 Norte 0 -- -- 68
2017-07-23 04:00:00 18.5 14 Norte 16 Norte 0 -- -- 66
2017-07-23 03:00:00 19.3 13 Noroeste 15 Noroeste 0 -- -- 64
2017-07-23 02:00:00 20 12 Noroeste 17 Noroeste 0 -- -- 61
2017-07-23 01:00:00 21.4 13 Noroeste 21 Noroeste 0 -- -- 56
2017-07-23 00:00:00 23.4 17 Noroeste 33 Noroeste 0 -- -- 50